sensor_id;sensor_type;location;lat;lon;timestamp;P1;durP1;ratioP1;P2;durP2;ratioP2
71821;SDS011;64096;52.548;13.406;2023-03-01T06:02:36;19.42;;;12.98;;
71821;SDS011;64096;52.548;13.406;2023-03-01T06:05:04;18.52;;;12.30;;
71821;SDS011;64096;52.548;13.406;2023-03-01T06:07:31;21.92;;;12.77;;
71821;SDS011;64096;52.548;13.406;2023-03-01T06:09:57;20.27;;;13.52;;
71821;SDS011;64096;52.548;13.406;2023-03-01T06:12:23;19.17;;;12.30;;
71821;SDS011;64096;52.548;13.406;2023-03-01T06:14:49;19.30;;;12.40;;
71821;SDS011;64096;52.548;13.406;2023-03-01T06:17:15;18.77;;;12.68;;
71821;SDS011;64096;52.548;13.406;2023-03-01T06:19:41;18.58;;;12.50;;
71821;SDS011;64096;52.548;13.406;2023-03-01T06:22:07;19.02;;;12.75;;
71821;SDS011;64096;52.548;13.406;2023-03-01T06:24:33;20.20;;;13.05;;
71821;SDS011;64096;52.548;13.406;2023-03-01T06:26:59;20.10;;;12.10;;
71821;SDS011;64096;52.548;13.406;2023-03-01T06:29:25;19.20;;;12.40;;
71821;SDS011;64096;52.548;13.406;2023-03-01T06:31:52;18.02;;;12.13;;
71821;SDS011;64096;52.548;13.406;2023-03-01T06:34:18;21.25;;;13.70;;
71821;SDS011;64096;52.548;13.406;2023-03-01T06:36:46;18.20;;;12.68;;
71821;SDS011;64096;52.548;13.406;2023-03-01T06:39:13;18.38;;;11.75;;
71821;SDS011;64096;52.548;13.406;2023-03-01T06:41:39;17.75;;;12.23;;
71821;SDS011;64096;52.548;13.406;2023-03-01T06:44:06;21.70;;;13.07;;
71821;SDS011;64096;52.548;13.406;2023-03-01T06:46:32;19.73;;;13.57;;
71821;SDS011;64096;52.548;13.406;2023-03-01T06:48:59;18.45;;;12.15;;
71821;SDS011;64096;52.548;13.406;2023-03-01T06:51:25;18.67;;;12.20;;
71821;SDS011;64096;52.548;13.406;2023-03-01T06:53:51;18.50;;;12.73;;
71821;SDS011;64096;52.548;13.406;2023-03-01T06:56:17;19.10;;;12.52;;
71821;SDS011;64096;52.548;13.406;2023-03-01T06:58:43;17.90;;;12.45;;
71821;SDS011;64096;52.548;13.406;2023-03-01T07:01:10;19.48;;;12.52;;
71821;SDS011;64096;52.548;13.406;2023-03-01T07:03:36;23.45;;;16.17;;
71821;SDS011;64096;52.548;13.406;2023-03-01T07:06:02;31.25;;;21.35;;
71821;SDS011;64096;52.548;13.406;2023-03-01T07:08:28;24.90;;;17.38;;
71821;SDS011;64096;52.548;13.406;2023-03-01T07:10:57;19.27;;;13.82;;
71821;SDS011;64096;52.548;13.406;2023-03-01T07:13:24;20.70;;;13.27;;
71821;SDS011;64096;52.548;13.406;2023-03-01T07:15:50;19.70;;;12.73;;
71821;SDS011;64096;52.548;13.406;2023-03-01T07:18:17;21.20;;;13.23;;
71821;SDS011;64096;52.548;13.406;2023-03-01T07:20:43;19.98;;;12.93;;
71821;SDS011;64096;52.548;13.406;2023-03-01T07:23:09;21.45;;;12.57;;
71821;SDS011;64096;52.548;13.406;2023-03-01T07:25:35;20.38;;;12.20;;
71821;SDS011;64096;52.548;13.406;2023-03-01T07:28:03;17.83;;;12.10;;
71821;SDS011;64096;52.548;13.406;2023-03-01T07:30:29;18.67;;;12.52;;
71821;SDS011;64096;52.548;13.406;2023-03-01T07:32:55;20.90;;;13.40;;
71821;SDS011;64096;52.548;13.406;2023-03-01T07:35:22;19.23;;;12.55;;
71821;SDS011;64096;52.548;13.406;2023-03-01T07:37:48;20.20;;;13.07;;
71821;SDS011;64096;52.548;13.406;2023-03-01T07:40:15;19.30;;;12.95;;
71821;SDS011;64096;52.548;13.406;2023-03-01T07:42:41;18.13;;;12.55;;
71821;SDS011;64096;52.548;13.406;2023-03-01T07:45:07;21.67;;;14.70;;
71821;SDS011;64096;52.548;13.406;2023-03-01T07:47:33;19.63;;;13.40;;
71821;SDS011;64096;52.548;13.406;2023-03-01T07:49:59;19.40;;;13.05;;
71821;SDS011;64096;52.548;13.406;2023-03-01T07:52:26;18.77;;;12.30;;
71821;SDS011;64096;52.548;13.406;2023-03-01T07:54:52;19.00;;;12.25;;
71821;SDS011;64096;52.548;13.406;2023-03-01T07:57:18;19.58;;;12.43;;
71821;SDS011;64096;52.548;13.406;2023-03-01T07:59:44;18.80;;;13.07;;
71821;SDS011;64096;52.548;13.406;2023-03-01T08:02:10;16.75;;;11.18;;
71821;SDS011;64096;52.548;13.406;2023-03-01T08:04:36;16.33;;;10.25;;
71821;SDS011;64096;52.548;13.406;2023-03-01T08:07:04;14.80;;;9.65;;
71821;SDS011;64096;52.548;13.406;2023-03-01T08:09:30;14.65;;;9.27;;
71821;SDS011;64096;52.548;13.406;2023-03-01T08:11:57;13.25;;;8.25;;
71821;SDS011;64096;52.548;13.406;2023-03-01T08:14:26;13.00;;;8.82;;
71821;SDS011;64096;52.548;13.406;2023-03-01T08:16:52;14.10;;;9.50;;
71821;SDS011;64096;52.548;13.406;2023-03-01T08:19:19;12.90;;;8.43;;
71821;SDS011;64096;52.548;13.406;2023-03-01T08:21:45;11.82;;;7.85;;
71821;SDS011;64096;52.548;13.406;2023-03-01T08:24:11;12.07;;;7.47;;
71821;SDS011;64096;52.548;13.406;2023-03-01T08:26:38;11.27;;;7.40;;
71821;SDS011;64096;52.548;13.406;2023-03-01T08:29:04;10.32;;;6.20;;
71821;SDS011;64096;52.548;13.406;2023-03-01T08:31:34;11.77;;;7.00;;
71821;SDS011;64096;52.548;13.406;2023-03-01T08:34:02;10.55;;;6.75;;
71821;SDS011;64096;52.548;13.406;2023-03-01T08:36:30;11.80;;;7.63;;
71821;SDS011;64096;52.548;13.406;2023-03-01T08:38:56;10.45;;;6.38;;
71821;SDS011;64096;52.548;13.406;2023-03-01T08:41:23;11.48;;;7.07;;
71821;SDS011;64096;52.548;13.406;2023-03-01T08:43:49;9.40;;;5.90;;
71821;SDS011;64096;52.548;13.406;2023-03-01T08:46:15;9.10;;;5.78;;
71821;SDS011;64096;52.548;13.406;2023-03-01T08:48:41;11.23;;;6.10;;
71821;SDS011;64096;52.548;13.406;2023-03-01T08:51:18;10.48;;;6.07;;
71821;SDS011;64096;52.548;13.406;2023-03-01T08:53:45;9.82;;;5.30;;
71821;SDS011;64096;52.548;13.406;2023-03-01T08:56:17;10.30;;;5.78;;
71821;SDS011;64096;52.548;13.406;2023-03-01T08:58:45;11.48;;;6.15;;
71821;SDS011;64096;52.548;13.406;2023-03-01T09:01:11;10.30;;;6.47;;
71821;SDS011;64096;52.548;13.406;2023-03-01T09:03:38;10.13;;;5.57;;
71821;SDS011;64096;52.548;13.406;2023-03-01T09:06:04;8.35;;;5.13;;
71821;SDS011;64096;52.548;13.406;2023-03-01T09:08:34;9.00;;;4.55;;
71821;SDS011;64096;52.548;13.406;2023-03-01T09:11:04;10.32;;;6.30;;
71821;SDS011;64096;52.548;13.406;2023-03-01T09:13:30;13.68;;;7.95;;
71821;SDS011;64096;52.548;13.406;2023-03-01T09:16:00;13.82;;;7.70;;
71821;SDS011;64096;52.548;13.406;2023-03-01T09:18:26;14.32;;;8.50;;
71821;SDS011;64096;52.548;13.406;2023-03-01T09:20:53;10.82;;;6.13;;
71821;SDS011;64096;52.548;13.406;2023-03-01T09:23:20;8.27;;;5.55;;
71821;SDS011;64096;52.548;13.406;2023-03-01T09:25:46;11.13;;;6.45;;
71821;SDS011;64096;52.548;13.406;2023-03-01T09:28:13;8.68;;;5.40;;
71821;SDS011;64096;52.548;13.406;2023-03-01T09:30:39;9.70;;;5.55;;
71821;SDS011;64096;52.548;13.406;2023-03-01T09:33:05;9.55;;;5.13;;
71821;SDS011;64096;52.548;13.406;2023-03-01T09:35:31;8.15;;;4.60;;
71821;SDS011;64096;52.548;13.406;2023-03-01T09:37:57;9.15;;;5.43;;
71821;SDS011;64096;52.548;13.406;2023-03-01T09:40:24;9.43;;;5.75;;
71821;SDS011;64096;52.548;13.406;2023-03-01T09:45:37;9.27;;;5.07;;
71821;SDS011;64096;52.548;13.406;2023-03-01T09:48:04;6.90;;;3.90;;
71821;SDS011;64096;52.548;13.406;2023-03-01T09:50:36;7.10;;;3.90;;
71821;SDS011;64096;52.548;13.406;2023-03-01T09:53:06;7.57;;;3.70;;
71821;SDS011;64096;52.548;13.406;2023-03-01T10:03:58;7.45;;;3.47;;
71821;SDS011;64096;52.548;13.406;2023-03-01T10:06:26;7.22;;;3.90;;
71821;SDS011;64096;52.548;13.406;2023-03-01T10:11:26;5.53;;;2.88;;
71821;SDS011;64096;52.548;13.406;2023-03-01T10:14:09;6.65;;;3.22;;
71821;SDS011;64096;52.548;13.406;2023-03-01T10:19:10;6.57;;;3.30;;
71821;SDS011;64096;52.548;13.406;2023-03-01T10:21:40;8.07;;;4.00;;
71821;SDS011;64096;52.548;13.406;2023-03-01T10:24:13;6.32;;;3.20;;
71821;SDS011;64096;52.548;13.406;2023-03-01T10:29:07;4.35;;;2.15;;
71821;SDS011;64096;52.548;13.406;2023-03-01T10:34:15;7.30;;;2.92;;
71821;SDS011;64096;52.548;13.406;2023-03-01T10:36:43;6.22;;;3.50;;
71821;SDS011;64096;52.548;13.406;2023-03-01T10:39:14;4.97;;;2.30;;
71821;SDS011;64096;52.548;13.406;2023-03-01T10:41:52;4.90;;;2.25;;
71821;SDS011;64096;52.548;13.406;2023-03-01T10:44:35;5.70;;;2.85;;
71821;SDS011;64096;52.548;13.406;2023-03-01T10:47:01;7.50;;;3.50;;
71821;SDS011;64096;52.548;13.406;2023-03-01T10:49:27;6.10;;;3.10;;
71821;SDS011;64096;52.548;13.406;2023-03-01T10:51:53;5.85;;;3.22;;
71821;SDS011;64096;52.548;13.406;2023-03-01T10:57:02;5.13;;;2.42;;
71821;SDS011;64096;52.548;13.406;2023-03-01T10:59:33;5.47;;;2.50;;
71821;SDS011;64096;52.548;13.406;2023-03-01T11:04:28;4.20;;;2.28;;
71821;SDS011;64096;52.548;13.406;2023-03-01T11:06:58;6.28;;;2.65;;
71821;SDS011;64096;52.548;13.406;2023-03-01T11:09:25;5.75;;;2.78;;
71821;SDS011;64096;52.548;13.406;2023-03-01T11:11:53;7.38;;;3.10;;
71821;SDS011;64096;52.548;13.406;2023-03-01T11:14:23;6.38;;;2.67;;
71821;SDS011;64096;52.548;13.406;2023-03-01T11:22:50;22.73;;;13.10;;
71821;SDS011;64096;52.548;13.406;2023-03-01T11:25:19;9.10;;;5.82;;
71821;SDS011;64096;52.548;13.406;2023-03-01T11:27:47;6.75;;;3.70;;
71821;SDS011;64096;52.548;13.406;2023-03-01T11:30:22;7.80;;;4.40;;
71821;SDS011;64096;52.548;13.406;2023-03-01T11:35:20;5.22;;;2.50;;
71821;SDS011;64096;52.548;13.406;2023-03-01T11:37:53;6.72;;;2.67;;
71821;SDS011;64096;52.548;13.406;2023-03-01T11:40:25;5.72;;;2.95;;
71821;SDS011;64096;52.548;13.406;2023-03-01T11:45:27;5.63;;;3.08;;
71821;SDS011;64096;52.548;13.406;2023-03-01T11:50:56;6.25;;;3.17;;
71821;SDS011;64096;52.548;13.406;2023-03-01T12:01:08;6.07;;;3.17;;
71821;SDS011;64096;52.548;13.406;2023-03-01T12:22:30;4.90;;;2.30;;
71821;SDS011;64096;52.548;13.406;2023-03-01T12:40:38;5.22;;;2.50;;
71821;SDS011;64096;52.548;13.406;2023-03-01T12:43:14;4.57;;;2.00;;
71821;SDS011;64096;52.548;13.406;2023-03-01T12:46:31;4.07;;;1.90;;
71821;SDS011;64096;52.548;13.406;2023-03-01T12:50:57;4.25;;;2.05;;
71821;SDS011;64096;52.548;13.406;2023-03-01T12:53:27;4.95;;;2.20;;
71821;SDS011;64096;52.548;13.406;2023-03-01T12:55:55;3.97;;;1.80;;
71821;SDS011;64096;52.548;13.406;2023-03-01T12:58:26;4.60;;;2.30;;
71821;SDS011;64096;52.548;13.406;2023-03-01T13:01:01;5.55;;;2.83;;
71821;SDS011;64096;52.548;13.406;2023-03-01T13:09:23;4.88;;;2.80;;
71821;SDS011;64096;52.548;13.406;2023-03-01T13:11:51;5.60;;;2.72;;
71821;SDS011;64096;52.548;13.406;2023-03-01T13:16:48;3.67;;;2.20;;
71821;SDS011;64096;52.548;13.406;2023-03-01T13:19:18;6.60;;;2.88;;
71821;SDS011;64096;52.548;13.406;2023-03-01T13:21:45;5.78;;;2.65;;
71821;SDS011;64096;52.548;13.406;2023-03-01T13:32:30;3.63;;;1.70;;
71821;SDS011;64096;52.548;13.406;2023-03-01T13:37:27;4.72;;;2.00;;
71821;SDS011;64096;52.548;13.406;2023-03-01T13:39:54;4.22;;;2.22;;
71821;SDS011;64096;52.548;13.406;2023-03-01T13:42:33;5.70;;;2.95;;
71821;SDS011;64096;52.548;13.406;2023-03-01T13:45:00;5.60;;;2.30;;
71821;SDS011;64096;52.548;13.406;2023-03-01T13:47:26;4.15;;;2.17;;
71821;SDS011;64096;52.548;13.406;2023-03-01T13:50:03;4.97;;;2.80;;
71821;SDS011;64096;52.548;13.406;2023-03-01T13:52:40;4.53;;;2.38;;
71821;SDS011;64096;52.548;13.406;2023-03-01T13:55:17;3.75;;;1.70;;
71821;SDS011;64096;52.548;13.406;2023-03-01T13:57:49;5.40;;;2.30;;
